Time;durP1;ratioP1;P1;durP2;ratioP2;P2;SDS_P1;SDS_P2;PMS_P1;PMS_P2;Temp;Humidity;BMP_temperature;BMP_pressure;BME280_temperature;BME280_humidity;BME280_pressure;Samples;Min_cycle;Max_cycle;Signal;HPM_P1;HPM_P2
2021/03/02 00:00:53;;;;;;;13.55;8.63;;;5.10;99.90;;;;;;5114640;28;20201;-43
2021/03/02 00:03:22;;;;;;;11.85;8.10;;;5.00;99.90;;;;;;5114195;28;20226;-44
2021/03/02 00:05:49;;;;;;;12.65;8.18;;;5.00;99.90;;;;;;5114247;28;20279;-45
2021/03/02 00:08:17;;;;;;;10.57;7.53;;;4.90;99.90;;;;;;5114252;28;20239;-44
2021/03/02 00:10:44;;;;;;;12.60;8.32;;;4.90;99.90;;;;;;5114095;28;20238;-42
2021/03/02 00:13:12;;;;;;;9.63;7.57;;;4.80;99.90;;;;;;5114016;28;20218;-42
2021/03/02 00:15:40;;;;;;;13.18;8.13;;;4.80;99.90;;;;;;5113996;28;20663;-43
2021/03/02 00:18:10;;;;;;;11.63;8.18;;;4.70;99.90;;;;;;5113656;28;20244;-42
2021/03/02 00:20:40;;;;;;;9.77;7.45;;;4.70;99.90;;;;;;5114283;28;20660;-43
2021/03/02 00:23:14;;;;;;;12.15;8.43;;;4.80;99.90;;;;;;5113835;28;20217;-43
2021/03/02 00:25:44;;;;;;;10.70;8.48;;;4.80;99.90;;;;;;5113759;28;20262;-42
2021/03/02 00:28:11;;;;;;;12.75;8.80;;;4.80;99.90;;;;;;5113842;28;20282;-41
2021/03/02 00:30:40;;;;;;;14.45;8.43;;;4.80;99.90;;;;;;5113731;28;20213;-42
2021/03/02 00:33:10;;;;;;;12.77;9.68;;;4.90;99.90;;;;;;5113547;28;20203;-41
2021/03/02 00:35:37;;;;;;;11.85;8.52;;;4.90;99.90;;;;;;5113823;28;20540;-42
2021/03/02 00:38:04;;;;;;;10.23;7.97;;;4.90;99.90;;;;;;5113741;28;20206;-43
2021/03/02 00:40:31;;;;;;;12.73;8.10;;;4.90;99.90;;;;;;5113631;28;20329;-44
2021/03/02 00:42:58;;;;;;;10.20;8.20;;;4.90;99.90;;;;;;5113629;28;20209;-43
2021/03/02 00:45:25;;;;;;;18.70;9.18;;;4.80;99.90;;;;;;5113578;28;20201;-43
2021/03/02 00:47:54;;;;;;;10.95;8.38;;;4.80;99.90;;;;;;5113274;28;20246;-42
2021/03/02 00:50:22;;;;;;;10.85;8.77;;;4.70;99.90;;;;;;5113413;28;20206;-43
2021/03/02 00:52:50;;;;;;;11.63;9.40;;;4.70;99.90;;;;;;5113311;28;20213;-43
2021/03/02 00:55:17;;;;;;;14.77;8.90;;;4.60;99.90;;;;;;5113331;28;20217;-42
2021/03/02 00:57:44;;;;;;;12.70;9.63;;;4.60;99.90;;;;;;5113029;28;20263;-42
2021/03/02 01:00:13;;;;;;;10.52;8.75;;;4.50;99.90;;;;;;5113422;28;20206;-45
2021/03/02 01:02:40;;;;;;;13.75;8.55;;;4.50;99.90;;;;;;5113340;28;20230;-43
2021/03/02 01:05:09;;;;;;;11.57;8.93;;;4.50;99.90;;;;;;5113020;28;20277;-42
2021/03/02 01:07:36;;;;;;;11.95;9.43;;;4.50;99.90;;;;;;5113097;28;20206;-46
2021/03/02 01:10:04;;;;;;;14.65;9.68;;;4.50;99.90;;;;;;5112693;28;20242;-42
2021/03/02 01:12:31;;;;;;;12.27;10.18;;;4.50;99.90;;;;;;5112710;28;20637;-44
2021/03/02 01:14:59;;;;;;;14.75;10.82;;;4.50;99.90;;;;;;5113418;28;20206;-48
2021/03/02 01:17:27;;;;;;;17.80;11.73;;;4.60;99.90;;;;;;5113024;28;20202;-45
2021/03/02 01:19:54;;;;;;;13.75;10.57;;;4.60;99.90;;;;;;5112731;28;20217;-44
2021/03/02 01:22:22;;;;;;;17.80;11.02;;;4.60;99.90;;;;;;5112726;28;20213;-43
2021/03/02 01:24:49;;;;;;;17.15;11.35;;;4.70;99.90;;;;;;5112678;28;20234;-46
2021/03/02 01:27:16;;;;;;;14.57;11.60;;;4.70;99.90;;;;;;5113162;28;20665;-43
2021/03/02 01:29:43;;;;;;;15.95;11.75;;;4.70;99.90;;;;;;5112369;28;20205;-42
2021/03/02 01:32:11;;;;;;;14.40;11.80;;;4.70;99.90;;;;;;5113018;28;20205;-46
2021/03/02 01:34:38;;;;;;;16.20;11.48;;;4.70;99.90;;;;;;5112902;28;20237;-44
2021/03/02 01:37:05;;;;;;;12.18;10.88;;;4.80;99.90;;;;;;5112888;28;20234;-45
2021/03/02 01:39:33;;;;;;;17.27;13.05;;;4.80;99.90;;;;;;5112746;28;20243;-43
2021/03/02 01:42:01;;;;;;;13.73;11.75;;;4.70;99.90;;;;;;5113189;28;20210;-46
2021/03/02 01:44:29;;;;;;;16.85;11.98;;;4.60;99.90;;;;;;5112823;28;20225;-47
2021/03/02 01:46:57;;;;;;;14.55;10.60;;;4.50;99.90;;;;;;5112844;28;20206;-46
2021/03/02 01:49:25;;;;;;;15.40;11.32;;;4.50;99.90;;;;;;5112495;28;20676;-44
2021/03/02 01:51:52;;;;;;;16.77;12.25;;;4.40;99.90;;;;;;5112802;28;20214;-44
2021/03/02 01:54:20;;;;;;;17.08;12.60;;;4.40;99.90;;;;;;5112434;28;20206;-43
2021/03/02 01:56:47;;;;;;;18.90;12.93;;;4.30;99.90;;;;;;5112436;28;20201;-40
2021/03/02 01:59:14;;;;;;;15.43;11.88;;;4.20;99.90;;;;;;5112443;28;20241;-41
2021/03/02 02:01:42;;;;;;;17.20;12.52;;;4.20;99.90;;;;;;5112352;28;20201;-44
2021/03/02 02:04:14;;;;;;;22.70;13.20;;;4.20;99.90;;;;;;5112354;28;20696;-43
2021/03/02 02:06:45;;;;;;;18.33;14.38;;;4.10;99.90;;;;;;5112383;28;20217;-45
2021/03/02 02:09:24;;;;;;;18.85;13.57;;;4.00;99.90;;;;;;5112367;28;20283;-48
2021/03/02 02:11:58;;;;;;;15.70;11.85;;;4.00;99.90;;;;;;5112004;28;20238;-47
2021/03/02 02:14:34;;;;;;;18.23;12.85;;;3.90;99.90;;;;;;5112612;28;20201;-44
2021/03/02 02:17:06;;;;;;;17.58;13.82;;;3.90;99.90;;;;;;5112296;28;20572;-43
2021/03/02 02:19:41;;;;;;;19.85;11.73;;;3.80;99.90;;;;;;5112708;28;20216;-44
2021/03/02 02:22:17;;;;;;;15.73;12.32;;;3.80;99.90;;;;;;5112074;28;20263;-44
2021/03/02 02:24:58;;;;;;;17.15;13.05;;;3.70;99.90;;;;;;5112026;28;20713;-43
2021/03/02 02:27:30;;;;;;;18.17;12.60;;;3.80;99.90;;;;;;5112367;28;20209;-42
2021/03/02 02:29:59;;;;;;;17.30;14.23;;;3.70;99.90;;;;;;5112287;28;20214;-42
2021/03/02 02:32:28;;;;;;;24.70;17.13;;;3.70;99.90;;;;;;5112237;28;20213;-43
2021/03/02 02:34:57;;;;;;;20.67;15.95;;;3.60;99.90;;;;;;5112115;28;20209;-46
2021/03/02 02:37:26;;;;;;;17.98;12.35;;;3.60;99.90;;;;;;5111962;28;20245;-45
2021/03/02 02:39:55;;;;;;;18.45;13.07;;;3.60;99.90;;;;;;5112035;28;20636;-43
2021/03/02 02:42:23;;;;;;;17.70;13.65;;;3.60;99.90;;;;;;5115272;28;20293;-44
2021/03/02 02:44:53;;;;;;;17.05;12.50;;;3.60;99.90;;;;;;5116210;28;20642;-42
2021/03/02 02:47:21;;;;;;;16.60;12.82;;;3.60;99.90;;;;;;5116281;28;20320;-43
2021/03/02 02:49:49;;;;;;;21.85;12.02;;;3.70;99.90;;;;;;5116191;28;20206;-43
2021/03/02 02:52:17;;;;;;;17.73;13.23;;;3.70;99.90;;;;;;5116103;28;20212;-42
2021/03/02 02:54:46;;;;;;;18.23;13.38;;;3.70;99.90;;;;;;5115957;28;20366;-42
2021/03/02 02:57:15;;;;;;;19.17;13.80;;;3.70;99.90;;;;;;5115881;28;20288;-43
2021/03/02 02:59:44;;;;;;;14.48;12.35;;;3.80;99.90;;;;;;5116048;28;20288;-43
2021/03/02 03:02:19;;;;;;;19.60;13.45;;;3.80;99.90;;;;;;5116179;28;20296;-44
2021/03/02 03:04:53;;;;;;;16.45;12.30;;;3.70;99.90;;;;;;5115596;28;20768;-43
2021/03/02 03:07:25;;;;;;;17.48;12.88;;;3.70;99.90;;;;;;5115722;28;20245;-43
2021/03/02 03:09:54;;;;;;;16.65;13.00;;;3.70;99.90;;;;;;5115668;28;20206;-44
2021/03/02 03:12:25;;;;;;;17.02;13.27;;;3.70;99.90;;;;;;5115787;28;20206;-44
2021/03/02 03:14:58;;;;;;;18.95;13.18;;;3.70;99.90;;;;;;5115669;28;20205;-43
2021/03/02 03:17:31;;;;;;;18.02;14.13;;;3.60;99.90;;;;;;5115549;28;20651;-45
2021/03/02 03:19:59;;;;;;;23.15;15.43;;;3.50;99.90;;;;;;5115458;28;20739;-43
2021/03/02 03:22:28;;;;;;;18.67;13.10;;;3.40;99.90;;;;;;5115559;28;20297;-43
2021/03/02 03:24:57;;;;;;;23.55;14.68;;;3.30;99.90;;;;;;5115238;28;20280;-41
2021/03/02 03:27:25;;;;;;;17.88;12.35;;;3.20;99.90;;;;;;5115235;28;20293;-48
2021/03/02 03:29:52;;;;;;;21.45;14.25;;;3.20;99.90;;;;;;5115252;28;20205;-43
2021/03/02 03:32:21;;;;;;;20.80;15.18;;;3.10;99.90;;;;;;5115047;28;20256;-41
2021/03/02 03:34:50;;;;;;;18.80;14.82;;;3.10;99.90;;;;;;5115235;28;20198;-42
2021/03/02 03:37:17;;;;;;;19.67;15.13;;;3.10;99.90;;;;;;5115249;28;20219;-43
2021/03/02 03:39:44;;;;;;;19.48;13.27;;;3.10;99.90;;;;;;5115004;28;20660;-42
2021/03/02 03:42:11;;;;;;;24.33;14.50;;;3.00;99.90;;;;;;5115172;28;20565;-42
2021/03/02 03:44:38;;;;;;;20.38;14.57;;;3.00;99.90;;;;;;5114879;28;20226;-42
2021/03/02 03:47:05;;;;;;;19.88;13.55;;;3.00;99.90;;;;;;5115102;28;20368;-41
2021/03/02 03:49:33;;;;;;;17.77;13.50;;;3.00;99.90;;;;;;5114986;28;20211;-40
2021/03/02 03:52:05;;;;;;;20.40;14.85;;;3.00;99.90;;;;;;5115006;28;20237;-42
2021/03/02 03:54:33;;;;;;;17.67;13.93;;;3.00;99.90;;;;;;5114032;28;20206;-47
2021/03/02 03:57:01;;;;;;;22.58;15.57;;;3.00;99.90;;;;;;5114713;28;20205;-43
2021/03/02 03:59:29;;;;;;;21.88;15.73;;;3.00;99.90;;;;;;5115184;28;20221;-47
2021/03/02 04:01:56;;;;;;;20.90;16.05;;;3.00;99.90;;;;;;5114463;28;20296;-45
2021/03/02 04:04:26;;;;;;;22.38;14.98;;;2.90;99.90;;;;;;5114680;28;20253;-42
2021/03/02 04:06:54;;;;;;;22.27;15.43;;;2.90;99.90;;;;;;5114672;28;20297;-44
2021/03/02 04:09:23;;;;;;;20.23;16.07;;;2.90;99.90;;;;;;5114474;28;20240;-43
2021/03/02 04:11:50;;;;;;;21.75;15.07;;;2.90;99.90;;;;;;5114150;28;20284;-41
2021/03/02 04:14:17;;;;;;;17.90;14.73;;;2.80;99.90;;;;;;5114403;28;20241;-41
2021/03/02 04:16:43;;;;;;;20.95;15.60;;;2.80;99.90;;;;;;5114627;28;20297;-42
2021/03/02 04:19:11;;;;;;;23.40;14.35;;;2.80;99.90;;;;;;5114420;28;20268;-41
2021/03/02 04:21:38;;;;;;;18.55;14.57;;;2.70;99.90;;;;;;5114404;28;20208;-41
2021/03/02 04:24:06;;;;;;;18.40;14.68;;;2.70;99.90;;;;;;5114210;28;20226;-41
2021/03/02 04:26:34;;;;;;;15.55;11.88;;;2.70;99.90;;;;;;5114311;28;20234;-42
2021/03/02 04:29:01;;;;;;;18.83;12.52;;;2.70;99.90;;;;;;5114294;28;20221;-41
2021/03/02 04:31:28;;;;;;;18.57;14.20;;;2.70;99.90;;;;;;5114066;28;20206;-40
2021/03/02 04:33:55;;;;;;;20.30;12.32;;;2.70;99.90;;;;;;5114110;28;20381;-41
2021/03/02 04:36:22;;;;;;;15.15;13.27;;;2.70;99.90;;;;;;5114053;28;20213;-41
2021/03/02 04:38:49;;;;;;;21.27;14.10;;;2.80;99.90;;;;;;5114281;28;20326;-41
2021/03/02 04:41:16;;;;;;;21.98;14.35;;;2.80;99.90;;;;;;5114143;28;20248;-40
2021/03/02 04:43:44;;;;;;;17.90;12.32;;;2.80;99.90;;;;;;5113975;28;20620;-41
2021/03/02 04:46:11;;;;;;;19.17;13.90;;;2.80;99.90;;;;;;5113953;28;20234;-40
2021/03/02 04:48:38;;;;;;;16.98;13.23;;;2.80;99.90;;;;;;5113900;28;20206;-40
2021/03/02 04:51:05;;;;;;;19.30;13.25;;;2.80;99.90;;;;;;5113811;28;20229;-41
2021/03/02 04:53:33;;;;;;;17.35;13.65;;;2.80;99.90;;;;;;5113858;28;20212;-42
2021/03/02 04:56:00;;;;;;;18.25;13.95;;;2.70;99.90;;;;;;5113934;28;20230;-43
2021/03/02 04:58:27;;;;;;;20.65;13.65;;;2.70;99.90;;;;;;5113547;28;20297;-43
2021/03/02 05:00:55;;;;;;;19.90;14.90;;;2.80;99.90;;;;;;5113173;28;20751;-43
2021/03/02 05:03:22;;;;;;;20.45;16.65;;;2.80;99.90;;;;;;5113346;28;20210;-44
2021/03/02 05:05:49;;;;;;;21.38;15.60;;;2.80;99.90;;;;;;5113042;28;20638;-42
2021/03/02 05:08:16;;;;;;;21.17;14.30;;;2.80;99.90;;;;;;5113258;28;20216;-43
2021/03/02 05:10:43;;;;;;;20.90;16.33;;;2.70;99.90;;;;;;5113391;28;20269;-44
2021/03/02 05:13:11;;;;;;;22.23;15.43;;;2.70;99.90;;;;;;5113370;28;20233;-45
2021/03/02 05:15:38;;;;;;;24.30;16.90;;;2.70;99.90;;;;;;5113244;28;20296;-43
2021/03/02 05:18:06;;;;;;;23.58;15.77;;;2.60;99.90;;;;;;5113208;28;20202;-41
2021/03/02 05:20:34;;;;;;;33.40;22.43;;;2.60;99.90;;;;;;5113031;28;20217;-42
2021/03/02 05:23:01;;;;;;;22.65;16.10;;;2.60;99.90;;;;;;5115598;28;20297;-42
2021/03/02 05:25:28;;;;;;;20.58;14.80;;;2.50;99.90;;;;;;5112955;28;20236;-43
2021/03/02 05:27:55;;;;;;;24.77;15.48;;;2.50;99.90;;;;;;5112822;28;20216;-43
2021/03/02 05:30:23;;;;;;;30.55;18.92;;;2.40;99.90;;;;;;5112938;28;20206;-41
2021/03/02 05:32:49;;;;;;;26.52;17.08;;;2.30;99.90;;;;;;5112867;27;20249;-42
2021/03/02 05:35:17;;;;;;;21.92;16.13;;;2.40;99.90;;;;;;5113061;28;20270;-42
2021/03/02 05:37:44;;;;;;;24.25;15.48;;;2.30;99.90;;;;;;5113138;28;20262;-42
2021/03/02 05:40:13;;;;;;;24.40;16.83;;;2.40;99.90;;;;;;5112750;28;20213;-45
2021/03/02 05:42:40;;;;;;;24.33;15.45;;;2.40;99.90;;;;;;5112737;28;20210;-43
2021/03/02 05:45:08;;;;;;;20.23;15.13;;;2.40;99.90;;;;;;5112626;28;20250;-43
2021/03/02 05:47:36;;;;;;;24.13;16.70;;;2.40;99.90;;;;;;5112774;28;20630;-45
2021/03/02 05:50:04;;;;;;;23.02;14.98;;;2.40;99.90;;;;;;5112768;28;20259;-42
2021/03/02 05:52:32;;;;;;;24.10;17.02;;;2.30;99.90;;;;;;5112451;28;20402;-42
2021/03/02 05:55:01;;;;;;;23.77;16.38;;;2.30;99.90;;;;;;5112503;27;20295;-41
2021/03/02 05:57:28;;;;;;;24.70;17.33;;;2.20;99.90;;;;;;5112473;28;20298;-41
2021/03/02 05:59:55;;;;;;;20.38;16.10;;;2.30;99.90;;;;;;5112686;28;20300;-40
2021/03/02 06:02:22;;;;;;;26.45;16.50;;;2.30;99.90;;;;;;5112339;28;20289;-40
2021/03/02 06:04:49;;;;;;;26.45;17.65;;;2.30;99.90;;;;;;5112587;28;20230;-41
2021/03/02 06:07:16;;;;;;;24.17;16.27;;;2.30;99.90;;;;;;5113032;28;20296;-42
2021/03/02 06:09:45;;;;;;;23.88;17.63;;;2.40;99.90;;;;;;5112617;28;20654;-43
2021/03/02 06:12:11;;;;;;;25.88;16.60;;;2.40;99.90;;;;;;5112449;28;20261;-42
2021/03/02 06:14:39;;;;;;;23.27;16.45;;;2.40;99.90;;;;;;5113352;28;20285;-42
2021/03/02 06:17:06;;;;;;;27.73;17.35;;;2.40;99.90;;;;;;5111928;28;20229;-43
2021/03/02 06:19:38;;;;;;;27.33;16.60;;;2.40;99.90;;;;;;5112457;28;20349;-43
2021/03/02 06:22:06;;;;;;;23.23;17.42;;;2.40;99.90;;;;;;5112242;28;20206;-45
2021/03/02 06:24:40;;;;;;;22.20;17.02;;;2.40;99.90;;;;;;5112151;28;20235;-46
2021/03/02 06:27:09;;;;;;;25.60;17.73;;;2.40;99.90;;;;;;5112517;28;20292;-43
2021/03/02 06:29:36;;;;;;;25.92;17.98;;;2.40;99.90;;;;;;5112499;28;20260;-41
2021/03/02 06:32:04;;;;;;;28.45;18.45;;;2.40;99.90;;;;;;5112197;28;20664;-41
2021/03/02 06:34:32;;;;;;;25.23;18.77;;;2.50;99.90;;;;;;5112179;28;20208;-43
2021/03/02 06:37:01;;;;;;;28.45;19.13;;;2.60;99.90;;;;;;5112052;28;20202;-41
2021/03/02 06:39:31;;;;;;;26.13;17.90;;;2.70;99.90;;;;;;5112094;28;20241;-41
2021/03/02 06:42:16;;;;;;;24.25;16.48;;;2.70;99.90;;;;;;5112317;28;20259;-41
2021/03/02 06:44:45;;;;;;;27.17;18.35;;;2.80;99.90;;;;;;5112105;28;20226;-41
2021/03/02 06:47:31;;;;;;;26.08;18.88;;;2.90;99.90;;;;;;5112168;28;20244;-41
2021/03/02 06:49:59;;;;;;;29.48;19.98;;;3.00;99.90;;;;;;5112018;28;20205;-44
2021/03/02 06:52:26;;;;;;;29.25;19.67;;;3.00;99.90;;;;;;5112127;28;20301;-43
2021/03/02 06:54:53;;;;;;;27.53;18.73;;;3.10;99.90;;;;;;5111862;28;20677;-41
2021/03/02 06:57:22;;;;;;;30.63;19.20;;;3.10;99.90;;;;;;5112009;28;20206;-41
2021/03/02 06:59:53;;;;;;;27.88;20.10;;;3.20;99.90;;;;;;5111795;28;20296;-41
2021/03/02 07:02:34;;;;;;;27.17;19.92;;;3.30;99.90;;;;;;5111942;28;20237;-42
2021/03/02 07:05:12;;;;;;;25.00;19.35;;;3.40;99.90;;;;;;5111751;28;20255;-42
2021/03/02 07:07:39;;;;;;;28.77;23.38;;;3.50;99.90;;;;;;5112042;28;20297;-42
2021/03/02 07:10:09;;;;;;;28.58;21.67;;;3.60;99.90;;;;;;5111816;28;20741;-45
2021/03/02 07:12:40;;;;;;;24.95;19.30;;;3.70;99.90;;;;;;5111886;28;20257;-50
2021/03/02 07:15:09;;;;;;;25.83;18.73;;;3.80;99.90;;;;;;5111665;28;20252;-48
2021/03/02 07:17:38;;;;;;;34.05;30.42;;;3.80;99.90;;;;;;5111762;28;20659;-41
2021/03/02 07:20:08;;;;;;;28.95;21.90;;;3.90;99.90;;;;;;5111743;28;20206;-45
2021/03/02 07:22:37;;;;;;;26.92;20.92;;;3.90;99.90;;;;;;5111993;28;20255;-46
2021/03/02 07:25:08;;;;;;;29.85;21.20;;;4.00;99.90;;;;;;5111706;28;20254;-41
2021/03/02 07:27:40;;;;;;;31.10;19.80;;;4.00;99.90;;;;;;5112310;28;20283;-42
2021/03/02 07:30:10;;;;;;;26.25;19.60;;;4.10;99.90;;;;;;5115516;28;20613;-43
2021/03/02 07:32:39;;;;;;;26.92;20.65;;;4.10;99.90;;;;;;5115147;28;20614;-40
2021/03/02 07:35:10;;;;;;;26.25;19.27;;;4.20;99.90;;;;;;5115273;28;20761;-42
2021/03/02 07:37:37;;;;;;;27.27;19.95;;;4.20;99.90;;;;;;5115083;28;20208;-41
2021/03/02 07:40:06;;;;;;;30.08;21.63;;;4.30;99.90;;;;;;5114904;28;20206;-41
2021/03/02 07:42:33;;;;;;;30.10;26.90;;;4.30;99.90;;;;;;5115062;28;20740;-41
2021/03/02 07:45:07;;;;;;;30.20;22.77;;;4.40;99.90;;;;;;5115159;28;20228;-42
2021/03/02 07:47:56;;;;;;;28.17;18.85;;;4.40;99.90;;;;;;5115058;28;20210;-43
2021/03/02 07:50:26;;;;;;;29.92;22.45;;;4.50;99.90;;;;;;5114794;28;20725;-40
2021/03/02 07:53:21;;;;;;;30.15;21.42;;;4.40;99.90;;;;;;5115140;28;20232;-40
2021/03/02 07:56:20;;;;;;;30.83;23.35;;;4.50;99.90;;;;;;5108792;28;20248;-42
2021/03/02 07:59:19;;;;;;;28.75;20.75;;;4.50;99.90;;;;;;5115002;28;20758;-41
2021/03/02 08:02:15;;;;;;;30.63;21.60;;;4.50;99.90;;;;;;5115294;27;20300;-42
2021/03/02 08:04:45;;;;;;;37.05;22.80;;;4.50;99.90;;;;;;5106226;28;20313;-43
2021/03/02 08:07:20;;;;;;;30.10;21.15;;;4.50;99.90;;;;;;5114847;28;20301;-41
2021/03/02 08:09:48;;;;;;;30.45;19.85;;;4.60;99.90;;;;;;5114773;28;20201;-40
2021/03/02 08:12:27;;;;;;;28.17;19.17;;;4.60;99.90;;;;;;5114566;28;20268;-40
2021/03/02 08:14:54;;;;;;;27.38;23.40;;;4.70;99.90;;;;;;5114733;28;20717;-40
2021/03/02 08:17:23;;;;;;;30.60;21.70;;;4.70;99.90;;;;;;5114428;28;20211;-40
2021/03/02 08:19:59;;;;;;;23.15;18.35;;;4.80;99.90;;;;;;5115016;28;20210;-41
2021/03/02 08:22:59;;;;;;;28.55;18.92;;;4.80;99.90;;;;;;5114586;28;20654;-42
2021/03/02 08:25:28;;;;;;;26.23;18.67;;;4.90;99.90;;;;;;5114446;28;20313;-41
2021/03/02 08:28:01;;;;;;;28.80;19.85;;;4.90;99.90;;;;;;5113995;28;20301;-42
2021/03/02 08:30:31;;;;;;;28.10;20.55;;;5.10;99.90;;;;;;5114220;28;20249;-41
2021/03/02 08:33:00;;;;;;;30.58;20.73;;;5.20;99.90;;;;;;5114382;28;20271;-41
2021/03/02 08:35:31;;;;;;;23.20;17.85;;;5.30;99.90;;;;;;5114457;28;20710;-42
2021/03/02 08:37:59;;;;;;;48.40;37.67;;;5.50;99.90;;;;;;5114321;28;20206;-42
2021/03/02 08:40:44;;;;;;;24.05;17.90;;;5.50;99.90;;;;;;5113653;28;20313;-42
2021/03/02 08:43:16;;;;;;;28.10;19.63;;;5.60;99.90;;;;;;5114338;28;20668;-41
2021/03/02 08:45:45;;;;;;;23.77;18.00;;;5.60;99.90;;;;;;5114169;28;20320;-41
2021/03/02 08:48:23;;;;;;;23.17;17.15;;;5.70;99.90;;;;;;5114218;28;20311;-41
2021/03/02 08:50:53;;;;;;;22.45;18.25;;;5.90;99.90;;;;;;5114032;28;20305;-41
2021/03/02 08:53:31;;;;;;;21.13;16.55;;;6.10;99.90;;;;;;5114067;28;20300;-42
2021/03/02 08:55:59;;;;;;;23.40;16.73;;;6.10;99.90;;;;;;5113864;28;20202;-41
2021/03/02 08:58:31;;;;;;;24.90;19.30;;;6.20;99.90;;;;;;5113890;28;20218;-41
2021/03/02 09:01:00;;;;;;;19.42;15.43;;;6.30;99.90;;;;;;5114080;28;20247;-43
2021/03/02 09:03:28;;;;;;;20.70;16.92;;;6.40;99.90;;;;;;5113370;28;20234;-41
2021/03/02 09:06:20;;;;;;;21.20;17.30;;;6.40;99.90;;;;;;5113766;28;20237;-42
2021/03/02 09:08:53;;;;;;;24.92;18.17;;;6.50;99.90;;;;;;5113684;28;20672;-42
2021/03/02 09:11:23;;;;;;;24.90;17.67;;;6.60;99.90;;;;;;5113558;28;20329;-41
2021/03/02 09:13:51;;;;;;;18.88;16.63;;;6.80;99.90;;;;;;5113554;28;20220;-41
2021/03/02 09:16:26;;;;;;;19.40;15.93;;;6.90;99.90;;;;;;5113515;28;20198;-40
2021/03/02 09:19:21;;;;;;;19.30;16.02;;;7.10;99.90;;;;;;5113386;28;20205;-42
2021/03/02 09:21:55;;;;;;;19.88;16.70;;;7.20;99.90;;;;;;5113338;28;20713;-43
2021/03/02 09:24:39;;;;;;;20.02;15.70;;;7.30;99.90;;;;;;5113069;28;20238;-41
2021/03/02 09:27:08;;;;;;;19.05;14.25;;;7.40;99.90;;;;;;5113438;28;20206;-41
2021/03/02 09:29:39;;;;;;;19.80;16.30;;;7.50;99.90;;;;;;5113297;28;20206;-41
2021/03/02 09:32:07;;;;;;;29.35;23.23;;;7.50;99.90;;;;;;5113211;28;20296;-41
2021/03/02 09:34:36;;;;;;;23.13;19.42;;;7.60;99.90;;;;;;5112984;28;20245;-41
2021/03/02 09:37:07;;;;;;;22.20;17.17;;;7.70;99.90;;;;;;5113035;28;20210;-41
2021/03/02 09:39:34;;;;;;;18.25;15.95;;;7.80;99.90;;;;;;5112934;28;20313;-41
2021/03/02 09:42:02;;;;;;;18.85;16.05;;;8.00;99.90;;;;;;5112866;28;20212;-43
2021/03/02 09:44:32;;;;;;;22.95;16.50;;;8.10;99.90;;;;;;5112788;28;20305;-42
2021/03/02 09:47:01;;;;;;;19.50;16.30;;;8.20;99.90;;;;;;5112844;28;20297;-42
2021/03/02 09:49:48;;;;;;;18.52;15.73;;;8.30;99.90;;;;;;5113275;28;20213;-41
2021/03/02 09:52:33;;;;;;;19.70;14.35;;;8.40;99.90;;;;;;5112066;28;20241;-42
2021/03/02 09:55:22;;;;;;;20.58;15.95;;;8.50;99.90;;;;;;5104268;28;20221;-42
2021/03/02 09:58:16;;;;;;;24.88;18.83;;;8.50;99.90;;;;;;5113103;28;20206;-41
2021/03/02 10:00:49;;;;;;;17.23;12.85;;;8.60;99.90;;;;;;5094341;28;20301;-44
2021/03/02 10:03:21;;;;;;;13.63;11.80;;;8.70;99.90;;;;;;5112635;28;20205;-42
2021/03/02 10:05:56;;;;;;;15.77;12.63;;;8.80;99.90;;;;;;5112313;28;20744;-43
2021/03/02 10:08:32;;;;;;;16.38;11.95;;;8.90;99.30;;;;;;5112880;28;20215;-42
2021/03/02 10:11:02;;;;;;;18.88;14.80;;;9.00;99.10;;;;;;5112396;28;20606;-44
2021/03/02 10:13:34;;;;;;;17.15;14.43;;;9.20;98.90;;;;;;5112477;28;20301;-43
2021/03/02 10:16:15;;;;;;;15.32;13.73;;;9.30;98.60;;;;;;5112347;28;20668;-41
2021/03/02 10:18:51;;;;;;;25.80;18.73;;;9.40;98.40;;;;;;5112597;28;20304;-41
2021/03/02 10:21:20;;;;;;;19.17;13.90;;;9.40;98.30;;;;;;5112704;28;20252;-39
2021/03/02 10:23:48;;;;;;;14.18;12.35;;;9.50;97.90;;;;;;5112274;28;20675;-41
2021/03/02 10:26:20;;;;;;;17.42;12.65;;;9.60;97.60;;;;;;5112407;28;20222;-43
2021/03/02 10:28:47;;;;;;;53.42;29.83;;;9.60;97.10;;;;;;5112321;28;20216;-42
2021/03/02 10:31:14;;;;;;;81.10;56.30;;;9.60;97.50;;;;;;5112694;28;20318;-43
2021/03/02 10:33:41;;;;;;;26.25;23.10;;;9.70;97.40;;;;;;5112834;28;20244;-42
2021/03/02 10:36:24;;;;;;;21.75;19.58;;;9.70;96.90;;;;;;5112215;28;20555;-43
2021/03/02 10:38:53;;;;;;;20.48;16.55;;;9.80;96.70;;;;;;5112027;28;20297;-42
2021/03/02 10:41:20;;;;;;;18.52;16.17;;;9.90;96.70;;;;;;5111936;28;20233;-43
2021/03/02 10:43:48;;;;;;;21.15;17.45;;;10.00;96.60;;;;;;5112340;28;20218;-42
2021/03/02 10:46:16;;;;;;;16.95;15.05;;;10.20;96.30;;;;;;5112082;28;20588;-43
2021/03/02 10:48:44;;;;;;;15.85;14.15;;;10.30;95.70;;;;;;5112160;28;20210;-43
2021/03/02 10:51:12;;;;;;;19.17;14.82;;;10.40;95.60;;;;;;5112532;28;20209;-42
2021/03/02 10:53:40;;;;;;;18.90;17.02;;;10.40;95.70;;;;;;5111934;28;20309;-45
2021/03/02 10:56:07;;;;;;;18.45;15.05;;;10.50;95.20;;;;;;5112579;28;20226;-42
2021/03/02 10:58:34;;;;;;;24.70;14.52;;;10.70;95.10;;;;;;5112258;28;20278;-42
2021/03/02 11:01:02;;;;;;;17.00;14.93;;;10.80;94.80;;;;;;5287796;22;20214;-41
2021/03/02 11:03:29;;;;;;;17.85;15.38;;;10.90;94.50;;;;;;5034526;28;20216;-41
2021/03/02 11:05:57;;;;;;;17.95;14.65;;;11.00;94.20;;;;;;5035147;28;20778;-41
2021/03/02 11:08:24;;;;;;;21.60;15.80;;;11.10;94.00;;;;;;5035022;28;20211;-42
2021/03/02 11:10:52;;;;;;;18.80;15.30;;;11.30;93.70;;;;;;5035264;28;20232;-42
2021/03/02 11:13:19;;;;;;;19.63;14.48;;;11.30;93.40;;;;;;5035135;28;20270;-42
2021/03/02 11:15:46;;;;;;;20.98;14.18;;;11.40;93.30;;;;;;5035051;28;20248;-42
2021/03/02 11:18:14;;;;;;;19.17;14.65;;;11.50;93.10;;;;;;5034871;28;20542;-43
2021/03/02 11:20:43;;;;;;;17.30;13.55;;;11.60;92.80;;;;;;5034933;28;20263;-42
2021/03/02 11:23:11;;;;;;;20.13;14.77;;;11.60;92.60;;;;;;5035156;28;20209;-42
2021/03/02 11:25:39;;;;;;;17.88;15.23;;;11.80;92.30;;;;;;5035053;28;20315;-42
2021/03/02 11:28:08;;;;;;;17.92;15.23;;;11.80;92.10;;;;;;5035213;28;20300;-44
2021/03/02 11:30:36;;;;;;;17.70;15.80;;;11.90;91.80;;;;;;5034952;28;20287;-42
2021/03/02 11:33:03;;;;;;;17.75;15.70;;;12.00;91.70;;;;;;5034633;28;20236;-43
2021/03/02 11:35:30;;;;;;;16.98;15.18;;;12.10;91.30;;;;;;5034837;28;20208;-43
2021/03/02 11:37:58;;;;;;;21.75;16.05;;;12.20;91.10;;;;;;5034600;28;20673;-42
2021/03/02 11:40:26;;;;;;;20.30;16.35;;;12.20;91.30;;;;;;5034796;28;20259;-43
2021/03/02 11:42:53;;;;;;;17.23;15.38;;;12.30;90.80;;;;;;5034725;28;20271;-42
2021/03/02 11:45:22;;;;;;;21.88;16.35;;;12.50;90.40;;;;;;5034700;28;20235;-42
2021/03/02 11:47:50;;;;;;;24.35;16.77;;;12.50;90.10;;;;;;5034410;28;20208;-44
2021/03/02 11:50:18;;;;;;;20.77;17.13;;;12.60;89.40;;;;;;5035155;28;20209;-42
2021/03/02 11:52:45;;;;;;;39.50;25.33;;;12.70;89.20;;;;;;5034589;28;20693;-42
2021/03/02 11:55:14;;;;;;;20.25;16.80;;;12.70;88.80;;;;;;5034273;28;20258;-43
2021/03/02 11:57:41;;;;;;;20.33;16.67;;;12.80;88.40;;;;;;5034517;28;20213;-43
2021/03/02 12:00:10;;;;;;;21.63;17.67;;;12.90;88.00;;;;;;5034458;28;20582;-44
2021/03/02 12:02:38;;;;;;;25.15;18.27;;;13.00;87.30;;;;;;5034115;28;20726;-43
2021/03/02 12:05:07;;;;;;;20.75;17.73;;;13.10;86.80;;;;;;5034164;28;20205;-42
2021/03/02 12:07:36;;;;;;;21.02;18.80;;;13.10;86.30;;;;;;5033960;28;20567;-42
2021/03/02 12:10:05;;;;;;;20.85;18.15;;;13.00;86.10;;;;;;5034250;28;20219;-42
2021/03/02 12:12:32;;;;;;;20.13;18.10;;;12.90;86.30;;;;;;5033934;28;20306;-41
2021/03/02 12:14:59;;;;;;;19.38;17.17;;;12.90;86.30;;;;;;5033085;28;20742;-43
2021/03/02 12:17:26;;;;;;;20.02;17.65;;;12.90;85.90;;;;;;5033972;28;20671;-44
2021/03/02 12:19:54;;;;;;;20.48;16.95;;;13.00;85.50;;;;;;5034006;28;20213;-41
2021/03/02 12:22:21;;;;;;;18.58;15.95;;;13.00;84.70;;;;;;5034029;28;20518;-42
2021/03/02 12:24:48;;;;;;;21.98;16.52;;;13.10;84.60;;;;;;5033926;28;20303;-43
2021/03/02 12:27:16;;;;;;;17.27;15.50;;;13.20;84.10;;;;;;5033832;28;20233;-43
2021/03/02 12:29:43;;;;;;;21.35;16.88;;;13.20;83.60;;;;;;5033593;28;20223;-43
2021/03/02 12:32:11;;;;;;;19.55;17.55;;;13.40;83.00;;;;;;5033941;28;20303;-42
2021/03/02 12:34:38;;;;;;;22.73;17.80;;;13.50;82.40;;;;;;5033843;28;20215;-44
2021/03/02 12:37:07;;;;;;;29.27;23.00;;;13.60;81.80;;;;;;5033653;28;20635;-41
2021/03/02 12:39:34;;;;;;;21.33;17.33;;;13.60;82.60;;;;;;5033666;28;20208;-41
2021/03/02 12:42:01;;;;;;;19.83;17.75;;;13.60;80.70;;;;;;5033888;28;20300;-44
2021/03/02 12:44:28;;;;;;;64.75;33.72;;;13.50;80.90;;;;;;5033543;28;20240;-43
2021/03/02 12:46:55;;;;;;;22.88;18.83;;;13.40;80.40;;;;;;5033457;28;20377;-42
2021/03/02 12:49:22;;;;;;;21.60;16.83;;;13.40;80.90;;;;;;5033326;28;20239;-44